sensor_id;sensor_type;location;lat;lon;timestamp;pressure;altitude;pressure_sealevel;temperature;humidity
71126;BME280;58785;55.566;38.058;2024-03-08T00:01:35;100417.97;;;-2.74;65.83
71126;BME280;58785;55.566;38.058;2024-03-08T00:04:01;100406.22;;;-2.85;66.41
71126;BME280;58785;55.566;38.058;2024-03-08T00:06:27;100403.09;;;-2.95;66.18
71126;BME280;58785;55.566;38.058;2024-03-08T00:08:52;100399.09;;;-3.05;66.21
71126;BME280;58785;55.566;38.058;2024-03-08T00:11:18;100389.19;;;-3.19;65.84
71126;BME280;58785;55.566;38.058;2024-03-08T00:13:44;100397.78;;;-3.17;66.17
71126;BME280;58785;55.566;38.058;2024-03-08T00:16:10;100401.44;;;-3.23;65.88
71126;BME280;58785;55.566;38.058;2024-03-08T00:18:36;100388.59;;;-3.27;66.10
71126;BME280;58785;55.566;38.058;2024-03-08T00:21:02;100381.75;;;-3.31;66.04
71126;BME280;58785;55.566;38.058;2024-03-08T00:23:27;100385.38;;;-3.35;65.93
71126;BME280;58785;55.566;38.058;2024-03-08T00:25:53;100376.84;;;-3.39;66.51
71126;BME280;58785;55.566;38.058;2024-03-08T00:28:21;100367.31;;;-3.40;66.40
71126;BME280;58785;55.566;38.058;2024-03-08T00:30:47;100365.56;;;-3.39;66.04
71126;BME280;58785;55.566;38.058;2024-03-08T00:33:12;100369.81;;;-3.37;66.04
71126;BME280;58785;55.566;38.058;2024-03-08T00:35:38;100361.19;;;-3.39;66.01
71126;BME280;58785;55.566;38.058;2024-03-08T00:38:04;100363.03;;;-3.42;66.32
71126;BME280;58785;55.566;38.058;2024-03-08T00:40:30;100369.94;;;-3.40;65.85
71126;BME280;58785;55.566;38.058;2024-03-08T00:42:56;100363.03;;;-3.42;66.37
71126;BME280;58785;55.566;38.058;2024-03-08T00:45:21;100367.47;;;-3.44;66.18
71126;BME280;58785;55.566;38.058;2024-03-08T00:47:48;100358.78;;;-3.45;65.65
71126;BME280;58785;55.566;38.058;2024-03-08T00:50:14;100358.72;;;-3.43;66.27
71126;BME280;58785;55.566;38.058;2024-03-08T00:52:40;100343.16;;;-3.45;66.26
71126;BME280;58785;55.566;38.058;2024-03-08T00:55:06;100332.94;;;-3.51;66.14
71126;BME280;58785;55.566;38.058;2024-03-08T00:57:36;100345.03;;;-3.49;65.44
71126;BME280;58785;55.566;38.058;2024-03-08T01:00:05;100337.28;;;-3.52;66.19
71126;BME280;58785;55.566;38.058;2024-03-08T01:02:35;100335.59;;;-3.53;66.02
71126;BME280;58785;55.566;38.058;2024-03-08T01:05:02;100326.78;;;-3.49;66.54
71126;BME280;58785;55.566;38.058;2024-03-08T01:07:30;100314.59;;;-3.48;66.58
71126;BME280;58785;55.566;38.058;2024-03-08T01:09:56;100328.25;;;-3.41;65.84
71126;BME280;58785;55.566;38.058;2024-03-08T01:12:22;100315.91;;;-3.36;66.06
71126;BME280;58785;55.566;38.058;2024-03-08T01:14:48;100316.38;;;-3.25;66.05
71126;BME280;58785;55.566;38.058;2024-03-08T01:17:14;100307.44;;;-3.18;66.22
71126;BME280;58785;55.566;38.058;2024-03-08T01:19:40;100308.03;;;-3.11;65.63
71126;BME280;58785;55.566;38.058;2024-03-08T01:22:05;100306.75;;;-3.00;65.41
71126;BME280;58785;55.566;38.058;2024-03-08T01:24:31;100311.63;;;-2.91;65.33
71126;BME280;58785;55.566;38.058;2024-03-08T01:26:57;100316.47;;;-2.81;65.15
71126;BME280;58785;55.566;38.058;2024-03-08T01:29:23;100309.13;;;-2.70;65.62
71126;BME280;58785;55.566;38.058;2024-03-08T01:31:48;100306.25;;;-2.64;64.85
71126;BME280;58785;55.566;38.058;2024-03-08T01:34:14;100300.88;;;-2.59;65.45
71126;BME280;58785;55.566;38.058;2024-03-08T01:36:40;100302.66;;;-2.62;65.76
71126;BME280;58785;55.566;38.058;2024-03-08T01:39:05;100300.03;;;-2.60;64.95
71126;BME280;58785;55.566;38.058;2024-03-08T01:41:34;100301.53;;;-2.54;65.00
71126;BME280;58785;55.566;38.058;2024-03-08T01:44:02;100311.84;;;-2.51;65.45
71126;BME280;58785;55.566;38.058;2024-03-08T01:46:28;100297.16;;;-2.54;65.61
71126;BME280;58785;55.566;38.058;2024-03-08T01:48:54;100294.47;;;-2.52;65.15
71126;BME280;58785;55.566;38.058;2024-03-08T01:51:21;100298.91;;;-2.54;65.90
71126;BME280;58785;55.566;38.058;2024-03-08T01:53:47;100304.13;;;-2.54;66.33
71126;BME280;58785;55.566;38.058;2024-03-08T01:56:14;100303.28;;;-2.55;66.07
71126;BME280;58785;55.566;38.058;2024-03-08T01:58:43;100287.91;;;-2.63;65.81
71126;BME280;58785;55.566;38.058;2024-03-08T02:01:11;100297.34;;;-2.58;66.07
71126;BME280;58785;55.566;38.058;2024-03-08T02:03:37;100304.25;;;-2.57;65.95
71126;BME280;58785;55.566;38.058;2024-03-08T02:06:03;100301.72;;;-2.59;66.20
71126;BME280;58785;55.566;38.058;2024-03-08T02:08:30;100300.06;;;-2.62;66.11
71126;BME280;58785;55.566;38.058;2024-03-08T02:10:57;100284.72;;;-2.69;65.86
71126;BME280;58785;55.566;38.058;2024-03-08T02:13:22;100286.63;;;-2.74;66.31
71126;BME280;58785;55.566;38.058;2024-03-08T02:15:56;100293.81;;;-2.79;66.26
71126;BME280;58785;55.566;38.058;2024-03-08T02:18:42;100280.19;;;-2.87;66.74
71126;BME280;58785;55.566;38.058;2024-03-08T02:21:08;100265.63;;;-2.93;66.49
71126;BME280;58785;55.566;38.058;2024-03-08T02:23:36;100272.78;;;-2.98;66.74
71126;BME280;58785;55.566;38.058;2024-03-08T02:26:03;100265.19;;;-3.04;66.52
71126;BME280;58785;55.566;38.058;2024-03-08T02:28:30;100263.69;;;-3.11;66.96
71126;BME280;58785;55.566;38.058;2024-03-08T02:30:56;100272.44;;;-3.12;66.90
71126;BME280;58785;55.566;38.058;2024-03-08T02:33:23;100265.66;;;-3.16;67.24
71126;BME280;58785;55.566;38.058;2024-03-08T02:35:50;100263.94;;;-3.17;66.60
71126;BME280;58785;55.566;38.058;2024-03-08T02:38:21;100267.47;;;-3.19;67.04
71126;BME280;58785;55.566;38.058;2024-03-08T02:40:48;100257.94;;;-3.20;66.38
71126;BME280;58785;55.566;38.058;2024-03-08T02:43:15;100266.69;;;-3.21;66.72
71126;BME280;58785;55.566;38.058;2024-03-08T02:45:42;100255.38;;;-3.21;67.06
71126;BME280;58785;55.566;38.058;2024-03-08T02:48:08;100258.03;;;-3.23;66.88
71126;BME280;58785;55.566;38.058;2024-03-08T02:50:34;100249.22;;;-3.19;66.62
71126;BME280;58785;55.566;38.058;2024-03-08T02:53:01;100245.63;;;-3.16;66.57
71126;BME280;58785;55.566;38.058;2024-03-08T02:55:26;100247.28;;;-3.13;66.76
71126;BME280;58785;55.566;38.058;2024-03-08T02:57:52;100226.34;;;-3.12;67.07
71126;BME280;58785;55.566;38.058;2024-03-08T03:00:20;100243.53;;;-3.06;66.45
71126;BME280;58785;55.566;38.058;2024-03-08T03:02:47;100238.13;;;-3.02;66.95
71126;BME280;58785;55.566;38.058;2024-03-08T03:05:12;100232.69;;;-2.96;66.20
71126;BME280;58785;55.566;38.058;2024-03-08T03:07:38;100229.78;;;-2.88;66.47
71126;BME280;58785;55.566;38.058;2024-03-08T03:10:04;100233.13;;;-2.84;66.33
71126;BME280;58785;55.566;38.058;2024-03-08T03:12:31;100232.97;;;-2.81;66.43
71126;BME280;58785;55.566;38.058;2024-03-08T03:14:57;100214.72;;;-2.81;66.40
71126;BME280;58785;55.566;38.058;2024-03-08T03:17:24;100229.53;;;-2.82;66.75
71126;BME280;58785;55.566;38.058;2024-03-08T03:19:50;100224.56;;;-2.88;66.36
71126;BME280;58785;55.566;38.058;2024-03-08T03:22:18;100219.50;;;-2.93;66.23
71126;BME280;58785;55.566;38.058;2024-03-08T03:24:44;100212.09;;;-3.03;66.58
71126;BME280;58785;55.566;38.058;2024-03-08T03:27:12;100203.72;;;-3.11;67.25
71126;BME280;58785;55.566;38.058;2024-03-08T03:29:39;100210.03;;;-3.17;66.50
71126;BME280;58785;55.566;38.058;2024-03-08T03:32:12;100205.84;;;-3.21;66.95
71126;BME280;58785;55.566;38.058;2024-03-08T03:34:38;100210.38;;;-3.26;66.93
71126;BME280;58785;55.566;38.058;2024-03-08T03:37:05;100203.63;;;-3.32;66.83
71126;BME280;58785;55.566;38.058;2024-03-08T03:39:32;100208.13;;;-3.35;67.00
71126;BME280;58785;55.566;38.058;2024-03-08T03:42:02;100203.88;;;-3.38;67.06
71126;BME280;58785;55.566;38.058;2024-03-08T03:44:28;100193.53;;;-3.39;67.39
71126;BME280;58785;55.566;38.058;2024-03-08T03:46:54;100185.84;;;-3.44;67.42
71126;BME280;58785;55.566;38.058;2024-03-08T03:49:20;100181.50;;;-3.43;67.05
71126;BME280;58785;55.566;38.058;2024-03-08T03:51:46;100181.56;;;-3.45;67.53
71126;BME280;58785;55.566;38.058;2024-03-08T03:54:12;100174.59;;;-3.44;67.75
71126;BME280;58785;55.566;38.058;2024-03-08T03:56:38;100179.38;;;-3.34;67.31
71126;BME280;58785;55.566;38.058;2024-03-08T03:59:07;100171.41;;;-3.29;67.20
71126;BME280;58785;55.566;38.058;2024-03-08T04:01:33;100176.22;;;-3.19;66.64
71126;BME280;58785;55.566;38.058;2024-03-08T04:04:00;100174.94;;;-3.08;66.66
71126;BME280;58785;55.566;38.058;2024-03-08T04:06:26;100177.22;;;-3.01;66.87
71126;BME280;58785;55.566;38.058;2024-03-08T04:08:51;100171.66;;;-2.92;66.46
71126;BME280;58785;55.566;38.058;2024-03-08T04:11:17;100166.97;;;-2.83;66.75
71126;BME280;58785;55.566;38.058;2024-03-08T04:13:43;100165.75;;;-2.75;66.02
71126;BME280;58785;55.566;38.058;2024-03-08T04:16:08;100159.56;;;-2.72;66.83
71126;BME280;58785;55.566;38.058;2024-03-08T04:18:37;100165.84;;;-2.56;66.74
71126;BME280;58785;55.566;38.058;2024-03-08T04:21:06;100152.59;;;-2.51;66.28
71126;BME280;58785;55.566;38.058;2024-03-08T04:23:33;100163.25;;;-2.36;65.96
71126;BME280;58785;55.566;38.058;2024-03-08T04:26:04;100159.56;;;-2.30;65.91
71126;BME280;58785;55.566;38.058;2024-03-08T04:28:31;100155.81;;;-2.24;65.67
71126;BME280;58785;55.566;38.058;2024-03-08T04:30:57;100168.25;;;-2.11;66.06
71126;BME280;58785;55.566;38.058;2024-03-08T04:33:23;100162.84;;;-2.06;65.67
71126;BME280;58785;55.566;38.058;2024-03-08T04:35:49;100169.84;;;-2.07;65.78
71126;BME280;58785;55.566;38.058;2024-03-08T04:38:15;100168.38;;;-1.93;65.27
71126;BME280;58785;55.566;38.058;2024-03-08T04:40:41;100159.88;;;-1.78;64.98
71126;BME280;58785;55.566;38.058;2024-03-08T04:43:07;100166.06;;;-1.60;65.27
71126;BME280;58785;55.566;38.058;2024-03-08T04:45:34;100169.44;;;-1.58;64.88
71126;BME280;58785;55.566;38.058;2024-03-08T04:47:59;100165.75;;;-1.54;65.64
71126;BME280;58785;55.566;38.058;2024-03-08T04:50:25;100155.53;;;-1.59;65.38
71126;BME280;58785;55.566;38.058;2024-03-08T04:52:55;100166.00;;;-1.59;65.17
71126;BME280;58785;55.566;38.058;2024-03-08T04:55:20;100155.22;;;-1.53;65.30
71126;BME280;58785;55.566;38.058;2024-03-08T04:57:47;100165.34;;;-1.45;65.10
71126;BME280;58785;55.566;38.058;2024-03-08T05:00:14;100163.91;;;-1.52;65.69
71126;BME280;58785;55.566;38.058;2024-03-08T05:02:41;100158.84;;;-1.55;65.63
71126;BME280;58785;55.566;38.058;2024-03-08T05:05:08;100160.88;;;-1.62;65.70
71126;BME280;58785;55.566;38.058;2024-03-08T05:07:37;100152.06;;;-1.59;65.93
71126;BME280;58785;55.566;38.058;2024-03-08T05:10:03;100146.09;;;-1.63;65.74
71126;BME280;58785;55.566;38.058;2024-03-08T05:12:28;100161.03;;;-1.65;66.13
71126;BME280;58785;55.566;38.058;2024-03-08T05:14:54;100161.78;;;-1.63;66.28
71126;BME280;58785;55.566;38.058;2024-03-08T05:17:20;100159.22;;;-1.83;67.37
71126;BME280;58785;55.566;38.058;2024-03-08T05:19:46;100153.56;;;-1.93;68.01
71126;BME280;58785;55.566;38.058;2024-03-08T05:22:12;100152.56;;;-2.09;68.64
71126;BME280;58785;55.566;38.058;2024-03-08T05:24:38;100153.88;;;-2.19;69.95
71126;BME280;58785;55.566;38.058;2024-03-08T05:27:04;100143.66;;;-2.25;69.40
71126;BME280;58785;55.566;38.058;2024-03-08T05:29:30;100145.19;;;-2.20;68.85
71126;BME280;58785;55.566;38.058;2024-03-08T05:31:55;100150.72;;;-2.07;68.77
71126;BME280;58785;55.566;38.058;2024-03-08T05:34:23;100144.09;;;-1.95;68.74
71126;BME280;58785;55.566;38.058;2024-03-08T05:36:49;100153.44;;;-1.90;68.13
71126;BME280;58785;55.566;38.058;2024-03-08T05:39:16;100141.56;;;-1.97;68.81
71126;BME280;58785;55.566;38.058;2024-03-08T05:41:43;100145.88;;;-1.96;68.75
71126;BME280;58785;55.566;38.058;2024-03-08T05:44:10;100140.16;;;-1.85;69.08
71126;BME280;58785;55.566;38.058;2024-03-08T05:46:36;100143.22;;;-1.76;68.63
71126;BME280;58785;55.566;38.058;2024-03-08T05:49:03;100134.09;;;-1.67;68.42
71126;BME280;58785;55.566;38.058;2024-03-08T05:51:34;100138.34;;;-1.64;68.03
71126;BME280;58785;55.566;38.058;2024-03-08T05:54:05;100139.84;;;-1.59;67.91
71126;BME280;58785;55.566;38.058;2024-03-08T05:56:31;100146.28;;;-1.47;67.50
71126;BME280;58785;55.566;38.058;2024-03-08T05:58:58;100145.00;;;-1.38;67.59
71126;BME280;58785;55.566;38.058;2024-03-08T06:01:25;100144.56;;;-1.29;67.61
71126;BME280;58785;55.566;38.058;2024-03-08T06:03:52;100144.69;;;-1.13;67.17
71126;BME280;58785;55.566;38.058;2024-03-08T06:06:21;100138.16;;;-1.05;67.36
71126;BME280;58785;55.566;38.058;2024-03-08T06:08:48;100135.19;;;-0.97;67.12
71126;BME280;58785;55.566;38.058;2024-03-08T06:11:15;100135.50;;;-0.86;67.09
71126;BME280;58785;55.566;38.058;2024-03-08T06:13:40;100133.38;;;-0.78;66.51
71126;BME280;58785;55.566;38.058;2024-03-08T06:16:06;100139.94;;;-0.69;66.61
71126;BME280;58785;55.566;38.058;2024-03-08T06:18:34;100142.47;;;-0.68;66.80
71126;BME280;58785;55.566;38.058;2024-03-08T06:21:05;100132.69;;;-0.64;66.78
71126;BME280;58785;55.566;38.058;2024-03-08T06:23:34;100139.63;;;-0.46;66.36
71126;BME280;58785;55.566;38.058;2024-03-08T06:26:09;100135.16;;;-0.26;65.88
71126;BME280;58785;55.566;38.058;2024-03-08T06:28:35;100136.03;;;-0.10;65.54
71126;BME280;58785;55.566;38.058;2024-03-08T06:31:01;100129.91;;;0.07;65.33
71126;BME280;58785;55.566;38.058;2024-03-08T06:33:28;100133.31;;;0.09;65.45
71126;BME280;58785;55.566;38.058;2024-03-08T06:35:54;100128.91;;;0.09;65.66
71126;BME280;58785;55.566;38.058;2024-03-08T06:38:26;100134.22;;;0.08;65.45
71126;BME280;58785;55.566;38.058;2024-03-08T06:40:52;100138.22;;;0.15;65.56
71126;BME280;58785;55.566;38.058;2024-03-08T06:43:19;100125.88;;;0.17;65.58
71126;BME280;58785;55.566;38.058;2024-03-08T06:45:46;100133.75;;;0.17;65.12
71126;BME280;58785;55.566;38.058;2024-03-08T06:48:17;100129.22;;;0.20;65.32
71126;BME280;58785;55.566;38.058;2024-03-08T06:50:46;100132.50;;;0.40;65.06
71126;BME280;58785;55.566;38.058;2024-03-08T06:53:13;100128.28;;;0.37;65.08
71126;BME280;58785;55.566;38.058;2024-03-08T06:55:42;100123.81;;;0.39;65.23
71126;BME280;58785;55.566;38.058;2024-03-08T06:58:09;100128.16;;;0.40;64.94
71126;BME280;58785;55.566;38.058;2024-03-08T07:00:37;100126.41;;;0.39;64.91
71126;BME280;58785;55.566;38.058;2024-03-08T07:03:03;100124.06;;;0.35;65.37
71126;BME280;58785;55.566;38.058;2024-03-08T07:05:32;100134.38;;;0.38;65.33
71126;BME280;58785;55.566;38.058;2024-03-08T07:07:58;100134.38;;;0.38;65.24
71126;BME280;58785;55.566;38.058;2024-03-08T07:10:24;100121.94;;;0.25;65.23
71126;BME280;58785;55.566;38.058;2024-03-08T07:12:51;100119.72;;;0.18;65.92
71126;BME280;58785;55.566;38.058;2024-03-08T07:15:17;100136.53;;;0.14;66.34
71126;BME280;58785;55.566;38.058;2024-03-08T07:17:46;100126.72;;;0.17;66.09
71126;BME280;58785;55.566;38.058;2024-03-08T07:20:13;100124.72;;;0.22;65.99
71126;BME280;58785;55.566;38.058;2024-03-08T07:22:41;100128.56;;;0.33;65.75
71126;BME280;58785;55.566;38.058;2024-03-08T07:25:07;100134.22;;;0.41;65.92
71126;BME280;58785;55.566;38.058;2024-03-08T07:27:33;100130.41;;;0.46;65.40
71126;BME280;58785;55.566;38.058;2024-03-08T07:30:00;100133.56;;;0.53;65.58
71126;BME280;58785;55.566;38.058;2024-03-08T07:32:26;100134.59;;;0.50;65.12
71126;BME280;58785;55.566;38.058;2024-03-08T07:34:54;100131.59;;;0.56;65.30
71126;BME280;58785;55.566;38.058;2024-03-08T07:37:20;100135.34;;;0.68;65.21
71126;BME280;58785;55.566;38.058;2024-03-08T07:39:46;100136.03;;;0.72;65.01
71126;BME280;58785;55.566;38.058;2024-03-08T07:42:12;100128.56;;;0.64;65.28
71126;BME280;58785;55.566;38.058;2024-03-08T07:44:38;100130.75;;;0.56;65.72
71126;BME280;58785;55.566;38.058;2024-03-08T07:47:04;100115.97;;;0.71;64.97
71126;BME280;58785;55.566;38.058;2024-03-08T07:49:30;100114.06;;;0.89;64.92
71126;BME280;58785;55.566;38.058;2024-03-08T07:51:56;100103.59;;;1.19;64.23
71126;BME280;58785;55.566;38.058;2024-03-08T07:54:23;100100.72;;;1.53;63.54
71126;BME280;58785;55.566;38.058;2024-03-08T07:56:49;100100.66;;;1.69;63.41
71126;BME280;58785;55.566;38.058;2024-03-08T07:59:16;100099.00;;;1.96;62.63
71126;BME280;58785;55.566;38.058;2024-03-08T08:01:42;100095.59;;;2.09;62.53
71126;BME280;58785;55.566;38.058;2024-03-08T08:04:09;100100.59;;;2.13;62.66
71126;BME280;58785;55.566;38.058;2024-03-08T08:06:40;100104.59;;;1.90;62.75
71126;BME280;58785;55.566;38.058;2024-03-08T08:09:09;100095.22;;;1.72;63.27
71126;BME280;58785;55.566;38.058;2024-03-08T08:11:43;100097.75;;;1.73;63.02
71126;BME280;58785;55.566;38.058;2024-03-08T08:14:09;100099.34;;;1.76;63.34
71126;BME280;58785;55.566;38.058;2024-03-08T08:16:36;100104.31;;;1.66;63.60
71126;BME280;58785;55.566;38.058;2024-03-08T08:19:06;100103.31;;;1.39;63.78
71126;BME280;58785;55.566;38.058;2024-03-08T08:21:34;100101.81;;;1.49;63.79
71126;BME280;58785;55.566;38.058;2024-03-08T08:24:05;100099.81;;;1.68;63.36
71126;BME280;58785;55.566;38.058;2024-03-08T08:26:31;100097.47;;;1.78;63.54
71126;BME280;58785;55.566;38.058;2024-03-08T08:28:58;100102.06;;;1.89;62.98
71126;BME280;58785;55.566;38.058;2024-03-08T08:31:25;100101.91;;;1.92;62.92
71126;BME280;58785;55.566;38.058;2024-03-08T08:33:50;100106.97;;;2.09;62.77
71126;BME280;58785;55.566;38.058;2024-03-08T08:36:19;100111.78;;;2.31;62.48
71126;BME280;58785;55.566;38.058;2024-03-08T08:38:44;100100.75;;;2.39;62.20
71126;BME280;58785;55.566;38.058;2024-03-08T08:41:11;100103.66;;;2.48;62.56
71126;BME280;58785;55.566;38.058;2024-03-08T08:43:36;100095.97;;;2.45;61.98
71126;BME280;58785;55.566;38.058;2024-03-08T08:46:02;100096.44;;;2.52;62.02
71126;BME280;58785;55.566;38.058;2024-03-08T08:48:28;100096.00;;;2.72;61.78
71126;BME280;58785;55.566;38.058;2024-03-08T08:50:54;100099.94;;;3.06;61.36
71126;BME280;58785;55.566;38.058;2024-03-08T08:53:20;100092.84;;;3.34;60.48
71126;BME280;58785;55.566;38.058;2024-03-08T08:55:47;100096.69;;;3.42;60.52
71126;BME280;58785;55.566;38.058;2024-03-08T08:58:13;100091.50;;;3.41;60.31
71126;BME280;58785;55.566;38.058;2024-03-08T09:00:39;100103.59;;;3.31;60.70
71126;BME280;58785;55.566;38.058;2024-03-08T09:03:05;100090.84;;;3.25;60.80
71126;BME280;58785;55.566;38.058;2024-03-08T09:05:32;100099.34;;;3.15;60.83
71126;BME280;58785;55.566;38.058;2024-03-08T09:07:59;100097.16;;;2.95;61.33
71126;BME280;58785;55.566;38.058;2024-03-08T09:10:26;100097.28;;;2.79;61.80
71126;BME280;58785;55.566;38.058;2024-03-08T09:12:53;100087.38;;;2.56;62.03
71126;BME280;58785;55.566;38.058;2024-03-08T09:15:19;100098.69;;;2.44;62.66
71126;BME280;58785;55.566;38.058;2024-03-08T09:17:46;100085.00;;;2.24;62.96
71126;BME280;58785;55.566;38.058;2024-03-08T09:20:14;100087.72;;;2.23;62.96
71126;BME280;58785;55.566;38.058;2024-03-08T09:22:43;100087.25;;;2.30;62.99
71126;BME280;58785;55.566;38.058;2024-03-08T09:25:09;100080.53;;;2.53;62.26
71126;BME280;58785;55.566;38.058;2024-03-08T09:27:35;100079.38;;;2.72;61.66
71126;BME280;58785;55.566;38.058;2024-03-08T09:30:01;100078.38;;;2.87;61.78
71126;BME280;58785;55.566;38.058;2024-03-08T09:32:27;100087.31;;;2.84;61.67
71126;BME280;58785;55.566;38.058;2024-03-08T09:34:53;100070.00;;;2.80;61.43
71126;BME280;58785;55.566;38.058;2024-03-08T09:37:18;100065.63;;;2.81;61.77
71126;BME280;58785;55.566;38.058;2024-03-08T09:39:44;100061.44;;;2.91;61.37
71126;BME280;58785;55.566;38.058;2024-03-08T09:42:10;100058.75;;;2.78;61.47
71126;BME280;58785;55.566;38.058;2024-03-08T09:44:44;100073.38;;;2.55;62.34
71126;BME280;58785;55.566;38.058;2024-03-08T09:47:13;100072.13;;;2.75;61.97
71126;BME280;58785;55.566;38.058;2024-03-08T09:49:40;100069.72;;;2.85;61.88
71126;BME280;58785;55.566;38.058;2024-03-08T09:52:07;100072.44;;;3.10;61.71
71126;BME280;58785;55.566;38.058;2024-03-08T09:54:33;100072.75;;;3.45;61.11
71126;BME280;58785;55.566;38.058;2024-03-08T09:56:59;100065.16;;;3.66;60.50
71126;BME280;58785;55.566;38.058;2024-03-08T09:59:25;100069.19;;;3.72;60.39
71126;BME280;58785;55.566;38.058;2024-03-08T10:01:51;100062.13;;;3.72;60.32
71126;BME280;58785;55.566;38.058;2024-03-08T10:04:24;100061.91;;;3.75;60.41
71126;BME280;58785;55.566;38.058;2024-03-08T10:06:51;100070.97;;;3.71;60.47
71126;BME280;58785;55.566;38.058;2024-03-08T10:09:17;100056.19;;;3.69;60.03
71126;BME280;58785;55.566;38.058;2024-03-08T10:11:44;100070.31;;;3.68;60.68
71126;BME280;58785;55.566;38.058;2024-03-08T10:14:10;100061.16;;;3.73;60.90
71126;BME280;58785;55.566;38.058;2024-03-08T10:16:38;100060.09;;;3.76;60.21
71126;BME280;58785;55.566;38.058;2024-03-08T10:19:06;100060.41;;;3.59;60.84
71126;BME280;58785;55.566;38.058;2024-03-08T10:21:32;100055.88;;;3.48;61.13
71126;BME280;58785;55.566;38.058;2024-03-08T10:23:58;100056.31;;;3.55;60.93
71126;BME280;58785;55.566;38.058;2024-03-08T10:26:24;100047.56;;;3.54;61.00
71126;BME280;58785;55.566;38.058;2024-03-08T10:28:51;100047.13;;;3.60;60.69
71126;BME280;58785;55.566;38.058;2024-03-08T10:31:21;100045.66;;;3.56;61.01
71126;BME280;58785;55.566;38.058;2024-03-08T10:33:47;100058.50;;;3.48;61.14
71126;BME280;58785;55.566;38.058;2024-03-08T10:36:15;100051.66;;;3.33;61.39
71126;BME280;58785;55.566;38.058;2024-03-08T10:38:42;100047.78;;;3.51;61.31
71126;BME280;58785;55.566;38.058;2024-03-08T10:41:13;100051.47;;;3.61;60.99
71126;BME280;58785;55.566;38.058;2024-03-08T10:49:17;100053.34;;;3.85;60.64
71126;BME280;58785;55.566;38.058;2024-03-08T10:51:46;100056.81;;;3.60;61.45
71126;BME280;58785;55.566;38.058;2024-03-08T10:54:14;100050.41;;;3.51;61.51
71126;BME280;58785;55.566;38.058;2024-03-08T10:56:41;100050.91;;;3.43;61.10
71126;BME280;58785;55.566;38.058;2024-03-08T10:59:10;100054.47;;;3.30;62.18
71126;BME280;58785;55.566;38.058;2024-03-08T11:01:36;100060.22;;;3.09;62.59
71126;BME280;58785;55.566;38.058;2024-03-08T11:04:04;100054.00;;;3.10;62.60
71126;BME280;58785;55.566;38.058;2024-03-08T11:06:41;100060.34;;;3.21;62.69
71126;BME280;58785;55.566;38.058;2024-03-08T11:09:36;100063.41;;;3.14;62.97
71126;BME280;58785;55.566;38.058;2024-03-08T11:12:25;100059.09;;;3.13;62.35
71126;BME280;58785;55.566;38.058;2024-03-08T11:14:54;100059.59;;;3.06;63.20
71126;BME280;58785;55.566;38.058;2024-03-08T11:17:42;100056.19;;;2.91;63.28
71126;BME280;58785;55.566;38.058;2024-03-08T11:20:15;100056.84;;;2.80;63.56
71126;BME280;58785;55.566;38.058;2024-03-08T11:22:54;100038.38;;;2.95;62.73
71126;BME280;58785;55.566;38.058;2024-03-08T11:25:35;100043.91;;;3.17;62.77
71126;BME280;58785;55.566;38.058;2024-03-08T11:28:14;100043.00;;;3.43;61.85
71126;BME280;58785;55.566;38.058;2024-03-08T11:30:43;100036.88;;;3.68;61.46
71126;BME280;58785;55.566;38.058;2024-03-08T11:33:13;100041.84;;;3.98;61.33
71126;BME280;58785;55.566;38.058;2024-03-08T11:35:39;100033.06;;;4.23;60.89
71126;BME280;58785;55.566;38.058;2024-03-08T11:38:08;100046.22;;;4.36;60.62
71126;BME280;58785;55.566;38.058;2024-03-08T11:40:35;100048.31;;;4.44;60.19
71126;BME280;58785;55.566;38.058;2024-03-08T11:43:01;100039.25;;;4.35;60.52
71126;BME280;58785;55.566;38.058;2024-03-08T11:45:35;100044.97;;;4.16;60.80
71126;BME280;58785;55.566;38.058;2024-03-08T11:48:03;100050.81;;;3.96;61.33
71126;BME280;58785;55.566;38.058;2024-03-08T11:50:29;100043.09;;;3.80;61.34
71126;BME280;58785;55.566;38.058;2024-03-08T11:53:03;100046.41;;;3.71;61.41
71126;BME280;58785;55.566;38.058;2024-03-08T11:55:33;100038.06;;;3.52;62.40
71126;BME280;58785;55.566;38.058;2024-03-08T11:58:02;100035.09;;;3.56;62.09
71126;BME280;58785;55.566;38.058;2024-03-08T12:00:28;100043.34;;;3.64;62.20
71126;BME280;58785;55.566;38.058;2024-03-08T12:03:05;100035.53;;;3.75;62.17
71126;BME280;58785;55.566;38.058;2024-03-08T12:05:32;100031.63;;;3.81;61.49
71126;BME280;58785;55.566;38.058;2024-03-08T12:07:59;100032.56;;;3.67;61.79
71126;BME280;58785;55.566;38.058;2024-03-08T12:10:25;100035.41;;;3.77;61.87
71126;BME280;58785;55.566;38.058;2024-03-08T12:12:52;100043.00;;;3.69;62.13
71126;BME280;58785;55.566;38.058;2024-03-08T12:15:23;100036.06;;;3.55;62.44
71126;BME280;58785;55.566;38.058;2024-03-08T12:17:50;100039.66;;;3.54;62.75
71126;BME280;58785;55.566;38.058;2024-03-08T12:20:18;100042.16;;;3.68;62.53
71126;BME280;58785;55.566;38.058;2024-03-08T12:22:47;100042.91;;;3.83;61.96
71126;BME280;58785;55.566;38.058;2024-03-08T12:25:14;100038.81;;;3.66;61.91
71126;BME280;58785;55.566;38.058;2024-03-08T12:27:43;100036.78;;;3.70;61.80
71126;BME280;58785;55.566;38.058;2024-03-08T12:30:20;100042.28;;;3.67;61.85
71126;BME280;58785;55.566;38.058;2024-03-08T12:32:56;100053.66;;;3.67;62.13
71126;BME280;58785;55.566;38.058;2024-03-08T12:35:23;100041.31;;;3.68;61.67
71126;BME280;58785;55.566;38.058;2024-03-08T12:37:54;100049.78;;;3.73;62.21
71126;BME280;58785;55.566;38.058;2024-03-08T12:40:30;100035.00;;;3.83;61.67
71126;BME280;58785;55.566;38.058;2024-03-08T12:42:57;100036.47;;;3.74;62.04
71126;BME280;58785;55.566;38.058;2024-03-08T12:45:24;100041.31;;;3.68;62.33
71126;BME280;58785;55.566;38.058;2024-03-08T12:47:54;100044.69;;;3.70;62.38
71126;BME280;58785;55.566;38.058;2024-03-08T12:50:21;100041.00;;;3.60;62.44
71126;BME280;58785;55.566;38.058;2024-03-08T12:52:47;100041.22;;;3.57;61.86